Latest Weather Observations for North Head

IDN60801

Issued at 3:35 pm EST Friday 1 August 2014 (issued every 30 minutes, with the page automatically refreshed every 10 minutes)

About weather observations | Map of weather stations | Latest weather observations for NSW | Other Formats
Station Details ID: 066197 Name: NORTH HEAD Lat: -33.82 Lon: 151.30 Height: 90.0 m
Data from the previous 72 hours. | See also: Recent months for locations in New South Wales
Date/Time
EST
Temp
°C
App
Temp
°C
Dew
Point
Rel
Hum
%
Delta-T
°C
Wind Press
QNH
hPa
Press
MSL
hPa
Rain
since 9 am
mm
Dir
 
Spd
km/h
Gust
km/h
Spd
kts
Gust
kts
01/03:30pm - - - - - W 28 50 15 27 - - -
01/03:18pm - - - - - W 32 56 17 30 - - -
01/03:00pm - - - - - WNW 28 41 15 22 - - -
01/02:30pm - - - - - W 22 35 12 19 - - -
01/02:00pm - - - - - WNW 19 28 10 15 - - -
01/01:30pm - - - - - WSW 26 41 14 22 - - -
01/01:05pm - - - - - W 30 56 16 30 - - -
01/01:00pm - - - - - W 26 43 14 23 - - -
01/12:30pm - - - - - W 28 44 15 24 - - -
01/12:00pm - - - - - WNW 32 46 17 25 - - -
01/11:30am - - - - - W 26 41 14 22 - - -
01/11:00am - - - - - W 28 46 15 25 - - -
01/10:30am - - - - - WNW 24 39 13 21 - - -
01/10:00am - - - - - WNW 22 35 12 19 - - -
01/09:30am - - - - - NW 19 32 10 17 - - -
01/09:00am - - - - - NW 20 32 11 17 - - -
01/08:30am - - - - - W 15 22 8 12 - - -
01/08:00am - - - - - WNW 15 20 8 11 - - -
01/07:30am - - - - - WNW 13 24 7 13 - - -
01/07:00am - - - - - W 7 9 4 5 - - -
01/06:30am - - - - - N 13 20 7 11 - - -
01/06:00am - - - - - N 13 19 7 10 - - -
01/05:30am - - - - - N 17 22 9 12 - - -
01/05:00am - - - - - N 17 26 9 14 - - -
01/04:30am - - - - - N 17 28 9 15 - - -
01/04:00am - - - - - N 19 30 10 16 - - -
01/03:30am - - - - - N 19 26 10 14 - - -
01/03:00am - - - - - N 19 24 10 13 - - -
01/02:30am - - - - - N 20 32 11 17 - - -
01/02:00am - - - - - N 17 26 9 14 - - -
01/01:30am - - - - - N 19 28 10 15 - - -
01/01:00am - - - - - N 17 26 9 14 - - -
01/12:30am - - - - - N 19 28 10 15 - - -
01/12:00am - - - - - N 17 22 9 12 - - -
 
Date/Time
EST
Temp
°C
App
Temp
°C
Dew
Point
Rel
Hum
%
Delta-T
°C
Wind Press
QNH
hPa
Press
MSL
hPa
Rain
since 9 am
mm
Dir
 
Spd
km/h
Gust
km/h
Spd
kts
Gust
kts
31/11:30pm - - - - - NNW 15 24 8 13 - - -
31/11:00pm - - - - - N 17 26 9 14 - - -
31/10:30pm - - - - - N 17 28 9 15 - - -
31/10:00pm - - - - - N 17 24 9 13 - - -
31/09:30pm - - - - - N 17 30 9 16 - - -
31/09:00pm - - - - - N 15 20 8 11 - - -
31/08:30pm - - - - - NNW 19 33 10 18 - - -
31/08:00pm - - - - - NNW 17 28 9 15 - - -
31/07:30pm - - - - - NNW 13 24 7 13 - - -
31/07:00pm - - - - - NNW 19 28 10 15 - - -
31/06:30pm - - - - - NNW 17 22 9 12 - - -
31/06:00pm - - - - - NNW 17 30 9 16 - - -
31/05:30pm - - - - - NNW 19 33 10 18 - - -
31/05:00pm - - - - - NNW 22 46 12 25 - - -
31/04:30pm - - - - - NNW 24 46 13 25 - - -
31/04:00pm - - - - - NNW 22 37 12 20 - - -
31/03:30pm - - - - - NW 32 61 17 33 - - -
31/03:05pm - - - - - NW 28 48 15 26 - - -
31/03:00pm - - - - - NW 26 43 14 23 - - -
31/02:30pm - - - - - NW 30 56 16 30 - - -
31/02:00pm - - - - - NW 32 54 17 29 - - -
31/01:40pm - - - - - NW 28 46 15 25 - - -
31/01:30pm - - - - - NW 24 43 13 23 - - -
31/01:00pm - - - - - NW 33 57 18 31 - - -
31/12:50pm - - - - - NW 30 50 16 27 - - -
31/12:30pm - - - - - NW 24 39 13 21 - - -
31/12:00pm - - - - - NNW 24 37 13 20 - - -
31/11:30am - - - - - NNW 19 32 10 17 - - -
31/11:00am - - - - - NW 22 41 12 22 - - -
31/10:30am - - - - - NNW 19 32 10 17 - - -
31/10:00am - - - - - NNW 19 33 10 18 - - -
31/09:30am - - - - - NNW 19 30 10 16 - - -
31/09:00am - - - - - NNW 17 28 9 15 - - -
31/08:30am - - - - - N 11 17 6 9 - - -
31/08:00am - - - - - N 15 24 8 13 - - -
31/07:30am - - - - - N 15 24 8 13 - - -
31/07:00am - - - - - N 17 24 9 13 - - -
31/06:30am - - - - - N 17 24 9 13 - - -
31/06:00am - - - - - N 15 24 8 13 - - -
31/05:30am - - - - - N 13 19 7 10 - - -
31/05:00am - - - - - N 13 22 7 12 - - -
31/04:30am - - - - - NNW 13 20 7 11 - - -
31/04:00am - - - - - NNW 15 22 8 12 - - -
31/03:30am - - - - - NNW 17 24 9 13 - - -
31/03:00am - - - - - NNW 15 24 8 13 - - -
31/02:30am - - - - - NNW 17 26 9 14 - - -
31/02:00am - - - - - NNW 17 26 9 14 - - -
31/01:30am - - - - - NNW 17 24 9 13 - - -
31/01:00am - - - - - NNW 15 26 8 14 - - -
31/12:30am - - - - - NNW 17 26 9 14 - - -
31/12:00am - - - - - NW 20 32 11 17 - - -
 
Date/Time
EST
Temp
°C
App
Temp
°C
Dew
Point
Rel
Hum
%
Delta-T
°C
Wind Press
QNH
hPa
Press
MSL
hPa
Rain
since 9 am
mm
Dir
 
Spd
km/h
Gust
km/h
Spd
kts
Gust
kts
30/11:30pm - - - - - NW 17 28 9 15 - - -
30/11:00pm - - - - - NW 15 20 8 11 - - -
30/10:30pm - - - - - NNW 13 19 7 10 - - -
30/10:00pm - - - - - NNW 11 15 6 8 - - -
30/09:30pm - - - - - NW 13 17 7 9 - - -
30/09:00pm - - - - - NW 11 15 6 8 - - -
30/08:30pm - - - - - NW 11 15 6 8 - - -
30/08:00pm - - - - - WNW 13 19 7 10 - - -
30/07:30pm - - - - - WNW 19 26 10 14 - - -
30/07:00pm - - - - - WNW 20 26 11 14 - - -
30/06:30pm - - - - - W 20 30 11 16 - - -
30/06:00pm - - - - - W 20 30 11 16 - - -
30/05:30pm - - - - - WNW 19 32 10 17 - - -
30/05:00pm - - - - - WNW 24 41 13 22 - - -
30/04:30pm - - - - - WNW 17 26 9 14 - - -
30/04:00pm - - - - - WNW 17 26 9 14 - - -
30/03:30pm - - - - - WNW 17 32 9 17 - - -
30/03:00pm - - - - - NW 20 33 11 18 - - -
30/02:30pm - - - - - WNW 20 33 11 18 - - -
30/02:00pm - - - - - WNW 19 32 10 17 - - -
30/01:30pm - - - - - NW 19 28 10 15 - - -
30/01:00pm - - - - - WNW 13 22 7 12 - - -
30/12:30pm - - - - - WNW 13 24 7 13 - - -
30/12:00pm - - - - - WNW 17 28 9 15 - - -
30/11:30am - - - - - WNW 9 17 5 9 - - -
30/11:00am - - - - - W 15 22 8 12 - - -
30/10:30am - - - - - WNW 13 22 7 12 - - -
30/10:00am - - - - - WNW 17 28 9 15 - - -
30/09:30am - - - - - WNW 15 22 8 12 - - -
30/09:00am - - - - - NW 15 24 8 13 - - -
30/08:30am - - - - - NNW 9 17 5 9 - - -
30/08:00am - - - - - WNW 20 33 11 18 - - -
30/07:30am - - - - - WNW 17 24 9 13 - - -
30/07:00am - - - - - WNW 17 26 9 14 - - -
30/06:30am - - - - - WNW 17 22 9 12 - - -
30/06:00am - - - - - WNW 11 19 6 10 - - -
30/05:30am - - - - - W 11 22 6 12 - - -
30/05:00am - - - - - WNW 11 20 6 11 - - -
30/04:30am - - - - - NW 13 20 7 11 - - -
30/04:00am - - - - - NW 20 30 11 16 - - -
30/03:30am - - - - - NW 20 32 11 17 - - -
30/03:00am - - - - - NW 17 22 9 12 - - -
30/02:30am - - - - - NNW 17 22 9 12 - - -
30/02:00am - - - - - NNW 17 24 9 13 - - -
30/01:30am - - - - - NNW 15 24 8 13 - - -
30/01:00am - - - - - NNW 15 24 8 13 - - -
30/12:30am - - - - - NNW 15 26 8 14 - - -
30/12:00am - - - - - NNW 17 30 9 16 - - -
 
Date/Time
EST
Temp
°C
App
Temp
°C
Dew
Point
Rel
Hum
%
Delta-T
°C
Wind Press
QNH
hPa
Press
MSL
hPa
Rain
since 9 am
mm
Dir
 
Spd
km/h
Gust
km/h
Spd
kts
Gust
kts
29/11:30pm - - - - - N 19 28 10 15 - - -
29/11:00pm - - - - - NNW 19 28 10 15 - - -
29/10:30pm - - - - - NNW 20 30 11 16 - - -
29/10:00pm - - - - - NNW 20 32 11 17 - - -
29/09:30pm - - - - - NNW 19 28 10 15 - - -
29/09:00pm - - - - - N 17 24 9 13 - - -
29/08:30pm - - - - - NNW 17 24 9 13 - - -
29/08:00pm - - - - - NW 13 24 7 13 - - -
29/07:30pm - - - - - NW 15 22 8 12 - - -
29/07:00pm - - - - - NNW 13 19 7 10 - - -
29/06:30pm - - - - - NNW 11 15 6 8 - - -
29/06:00pm - - - - - NW 17 24 9 13 - - -
29/05:30pm - - - - - NNW 13 20 7 11 - - -
29/05:00pm - - - - - NW 19 30 10 16 - - -
29/04:30pm - - - - - NW 15 24 8 13 - - -
29/04:00pm - - - - - NW 15 28 8 15 - - -

Other Formats:

Comma delimited format used in spreadsheet applications
http://www.bom.gov.au/fwo/IDN60801/IDN60801.95768.axf

JavaScript Object Notation format (JSON) in row-major order
http://www.bom.gov.au/fwo/IDN60801/IDN60801.95768.json